»·PEaware :: JBU2079 KLAS-KLGB

JBU2079 :: KLAS-KLGB

FLIGHT INFORMATION

Flight Status: Arrived
Operator:
JetBlue Airways
More flights by this operator :: More flights under this callsign
Pilot: Kaaron G. (14193)
Aircraft: AIRBUS A320
(A320)
More flights by this aircraft type
Origin: KLAS McCarran Intl
United States
Destination: KLGB Long Beach
United States
More flights between these airports :: More routes between these airports
Route: +BOACH8 WHIGG FEYLA DSNEE4
File this flight plan on PilotEdge
Remarks:
Altitude:
(Current/Filed)
28,000ft
Speed:
(Current/Filed)
455kts
Departed: 22-Jul-18 08:36 PM
Arrived: 22-Jul-18 09:20 PM
Distance/Time
Traveled:
200nm/0:43
Distance/Time
To Go:
Arrived

Flight Plot

Page will automatically refresh every two minutes.

Flight plan parsing failed; only flown route is shown


Map Options




Map Legend


Flown Route
Filed Route
Departure Airport
Arrival Airport
Navaid (VOR, NDB)
Fix

Horizontal Profiles

Position Reports

Time Latitude Longitude Heading Altitude Ground
Speed
22-Jul-18 20:04 36.085329 -115.139002 359 2195ft 0kts
22-Jul-18 20:05 36.085329 -115.139002 0 2195ft 0kts
22-Jul-18 20:06 36.085329 -115.139002 0 2195ft 0kts
22-Jul-18 20:07 36.085329 -115.139002 0 2195ft 0kts
22-Jul-18 20:08 36.085329 -115.139002 0 2195ft 0kts
22-Jul-18 20:09 36.085329 -115.139002 0 2195ft 0kts
22-Jul-18 20:10 36.085329 -115.139002 0 2195ft 0kts
22-Jul-18 20:11 36.085329 -115.139002 0 2195ft 0kts
22-Jul-18 20:12 36.085329 -115.139002 0 2195ft 0kts
22-Jul-18 20:13 36.085329 -115.139002 0 2195ft 0kts
22-Jul-18 20:14 36.085329 -115.139002 0 2195ft 0kts
22-Jul-18 20:15 36.085329 -115.139002 0 2195ft 0kts
22-Jul-18 20:16 36.085329 -115.139002 0 2195ft 0kts
22-Jul-18 20:17 36.085329 -115.139002 0 2195ft 0kts
22-Jul-18 20:18 36.085329 -115.139002 0 2195ft 0kts
22-Jul-18 20:19 36.085329 -115.139002 0 2195ft 0kts
22-Jul-18 20:20 36.085329 -115.139002 0 2195ft 0kts
22-Jul-18 20:21 36.085329 -115.139002 0 2195ft 0kts
22-Jul-18 20:22 36.085329 -115.139002 0 2195ft 0kts
22-Jul-18 20:23 36.085009 -115.139011 3 2195ft 2kts
22-Jul-18 20:24 36.084448 -115.139245 80 2195ft 2kts
22-Jul-18 20:25 36.084439 -115.139463 89 2195ft 0kts
22-Jul-18 20:26 36.084439 -115.139462 89 2195ft 0kts
22-Jul-18 20:27 36.084440 -115.139081 89 2195ft 14kts
22-Jul-18 20:28 36.083001 -115.132822 151 2195ft 6kts
22-Jul-18 20:29 36.080124 -115.132942 180 2195ft 17kts
22-Jul-18 20:30 36.078888 -115.132937 179 2195ft 0kts
22-Jul-18 20:31 36.078286 -115.131400 90 2195ft 13kts
22-Jul-18 20:32 36.078318 -115.123237 89 2195ft 3kts
22-Jul-18 20:33 36.077528 -115.121509 130 2195ft 0kts
22-Jul-18 20:34 36.077148 -115.121281 174 2195ft 7kts
22-Jul-18 20:35 36.076426 -115.121639 271 2195ft 0kts
22-Jul-18 20:36 36.076426 -115.121639 271 2195ft 0kts
22-Jul-18 20:37 36.076420 -115.161913 269 2888ft 174kts
22-Jul-18 20:38 36.076232 -115.214087 270 4103ft 201kts
22-Jul-18 20:39 36.041640 -115.269327 196 4930ft 256kts
22-Jul-18 20:40 35.980370 -115.297043 200 6613ft 284kts
22-Jul-18 20:41 35.887327 -115.311369 185 9418ft 297kts
22-Jul-18 20:42 35.816407 -115.311086 174 10840ft 326kts
22-Jul-18 20:43 35.718100 -115.299615 178 11631ft 382kts
22-Jul-18 20:44 35.626216 -115.362275 228 13390ft 397kts
22-Jul-18 20:45 35.552563 -115.463770 226 15095ft 408kts
22-Jul-18 20:46 35.474704 -115.567878 227 16739ft 419kts
22-Jul-18 20:47 35.394931 -115.675477 227 18119ft 432kts
22-Jul-18 20:48 35.314333 -115.783640 226 20068ft 428kts
22-Jul-18 20:49 35.276876 -115.833840 227 20652ft 433kts
22-Jul-18 20:50 35.194098 -115.942229 225 21978ft 439kts
22-Jul-18 20:51 35.120459 -116.035160 225 23011ft 444kts
22-Jul-18 20:52 35.033828 -116.143867 224 24128ft 450kts
22-Jul-18 20:53 34.946055 -116.254231 224 25146ft 456kts
22-Jul-18 20:54 34.857037 -116.365276 225 26059ft 461kts
22-Jul-18 20:55 34.770188 -116.476714 224 26088ft 452kts
22-Jul-18 20:56 34.685123 -116.582113 219 25260ft 411kts
22-Jul-18 20:57 34.598115 -116.667220 217 23142ft 398kts
22-Jul-18 20:58 34.514109 -116.749371 218 20846ft 376kts
22-Jul-18 20:59 34.438264 -116.835702 223 18864ft 372kts
22-Jul-18 21:00 34.368604 -116.916363 223 16896ft 370kts
22-Jul-18 21:01 34.295409 -117.000923 223 14813ft 359kts
22-Jul-18 21:02 34.216490 -117.070132 210 13294ft 338kts
22-Jul-18 21:03 34.136560 -117.121247 203 12316ft 335kts
22-Jul-18 21:04 34.049615 -117.167392 204 11798ft 340kts
22-Jul-18 21:05 33.959111 -117.195280 186 11567ft 353kts
22-Jul-18 21:06 33.904871 -117.275451 254 10183ft 307kts
22-Jul-18 21:07 33.865896 -117.361445 235 8868ft 289kts
22-Jul-18 21:08 33.822861 -117.440721 250 7965ft 272kts
22-Jul-18 21:09 33.821123 -117.533636 271 7957ft 262kts
22-Jul-18 21:10 33.821334 -117.615725 253 7929ft 243kts
22-Jul-18 21:11 33.799369 -117.688254 235 6816ft 230kts
22-Jul-18 21:12 33.760632 -117.747241 231 5866ft 213kts
22-Jul-18 21:13 33.723666 -117.802158 231 4692ft 208kts
22-Jul-18 21:14 33.688543 -117.853654 231 3995ft 194kts
22-Jul-18 21:15 33.671419 -117.910976 280 3423ft 189kts
22-Jul-18 21:16 33.681621 -117.972869 281 2362ft 188kts
22-Jul-18 21:17 33.711420 -118.022756 314 2038ft 188kts
22-Jul-18 21:18 33.747606 -118.066511 314 1833ft 169kts
22-Jul-18 21:19 33.777469 -118.102471 314 1005ft 143kts
22-Jul-18 21:20 33.805076 -118.135905 312 280ft 132kts
22-Jul-18 21:21 33.822936 -118.157610 314 74ft 38kts
22-Jul-18 21:22 33.824875 -118.157959 91 74ft 15kts
22-Jul-18 21:23 33.824866 -118.156955 90 74ft 0kts
22-Jul-18 21:24 33.823974 -118.155948 179 74ft 13kts
22-Jul-18 21:25 33.822800 -118.151951 89 74ft 24kts
22-Jul-18 21:26 33.821681 -118.148070 90 74ft 17kts
22-Jul-18 21:27 33.819219 -118.147103 178 74ft 7kts
22-Jul-18 21:28 33.819070 -118.146336 91 74ft 0kts
22-Jul-18 21:29 33.819070 -118.146336 91 74ft 0kts
22-Jul-18 21:30 33.819070 -118.146336 91 74ft 0kts
22-Jul-18 21:31 33.819070 -118.146336 91 74ft 0kts
22-Jul-18 21:32 33.819070 -118.146336 91 74ft 0kts

Navigation Log

Ident Type
Flight plan parsing failed, navigation log unavailable